sensor_id;sensor_type;location;lat;lon;timestamp;P1;durP1;ratioP1;P2;durP2;ratioP2
29026;SDS011;16120;48.608;9.092;2023-08-21T00:00:50;4.43;;;0.40;;
29026;SDS011;16120;48.608;9.092;2023-08-21T00:04:46;4.43;;;0.40;;
29026;SDS011;16120;48.608;9.092;2023-08-21T00:08:41;4.43;;;0.40;;
29026;SDS011;16120;48.608;9.092;2023-08-21T00:12:37;4.47;;;0.40;;
29026;SDS011;16120;48.608;9.092;2023-08-21T00:16:32;4.40;;;0.40;;
29026;SDS011;16120;48.608;9.092;2023-08-21T00:20:28;4.40;;;0.40;;
29026;SDS011;16120;48.608;9.092;2023-08-21T00:24:24;4.43;;;0.40;;
29026;SDS011;16120;48.608;9.092;2023-08-21T00:28:19;4.37;;;0.40;;
29026;SDS011;16120;48.608;9.092;2023-08-21T00:32:14;4.37;;;0.40;;
29026;SDS011;16120;48.608;9.092;2023-08-21T00:36:10;4.40;;;0.40;;
29026;SDS011;16120;48.608;9.092;2023-08-21T00:40:06;4.40;;;0.40;;
29026;SDS011;16120;48.608;9.092;2023-08-21T00:44:01;4.40;;;0.40;;
29026;SDS011;16120;48.608;9.092;2023-08-21T00:47:57;4.40;;;0.40;;
29026;SDS011;16120;48.608;9.092;2023-08-21T00:51:53;4.40;;;0.40;;
29026;SDS011;16120;48.608;9.092;2023-08-21T00:55:49;4.40;;;0.40;;
29026;SDS011;16120;48.608;9.092;2023-08-21T00:59:44;4.40;;;0.40;;
29026;SDS011;16120;48.608;9.092;2023-08-21T01:03:39;4.40;;;0.40;;
29026;SDS011;16120;48.608;9.092;2023-08-21T01:07:38;4.40;;;0.40;;
29026;SDS011;16120;48.608;9.092;2023-08-21T01:11:39;4.40;;;0.40;;
29026;SDS011;16120;48.608;9.092;2023-08-21T01:15:36;4.50;;;0.40;;
29026;SDS011;16120;48.608;9.092;2023-08-21T01:19:34;4.43;;;0.40;;
29026;SDS011;16120;48.608;9.092;2023-08-21T01:23:33;4.37;;;0.40;;
29026;SDS011;16120;48.608;9.092;2023-08-21T01:27:28;4.43;;;0.40;;
29026;SDS011;16120;48.608;9.092;2023-08-21T01:31:25;4.43;;;0.40;;
29026;SDS011;16120;48.608;9.092;2023-08-21T01:35:21;4.47;;;0.40;;
29026;SDS011;16120;48.608;9.092;2023-08-21T01:39:18;4.40;;;0.40;;
29026;SDS011;16120;48.608;9.092;2023-08-21T01:43:13;4.40;;;0.40;;
29026;SDS011;16120;48.608;9.092;2023-08-21T01:47:09;4.35;;;0.40;;
29026;SDS011;16120;48.608;9.092;2023-08-21T01:51:04;4.40;;;0.40;;
29026;SDS011;16120;48.608;9.092;2023-08-21T01:55:00;4.45;;;0.40;;
29026;SDS011;16120;48.608;9.092;2023-08-21T01:58:56;4.40;;;0.40;;
29026;SDS011;16120;48.608;9.092;2023-08-21T02:02:51;4.40;;;0.40;;
29026;SDS011;16120;48.608;9.092;2023-08-21T02:06:46;4.40;;;0.40;;
29026;SDS011;16120;48.608;9.092;2023-08-21T02:10:52;4.40;;;0.40;;
29026;SDS011;16120;48.608;9.092;2023-08-21T02:14:47;4.37;;;0.40;;
29026;SDS011;16120;48.608;9.092;2023-08-21T02:18:42;4.40;;;0.40;;
29026;SDS011;16120;48.608;9.092;2023-08-21T02:22:38;4.40;;;0.40;;
29026;SDS011;16120;48.608;9.092;2023-08-21T02:26:34;4.40;;;0.40;;
29026;SDS011;16120;48.608;9.092;2023-08-21T02:30:29;4.43;;;0.40;;
29026;SDS011;16120;48.608;9.092;2023-08-21T02:34:25;4.40;;;0.40;;
29026;SDS011;16120;48.608;9.092;2023-08-21T02:38:20;4.40;;;0.40;;
29026;SDS011;16120;48.608;9.092;2023-08-21T02:42:16;4.43;;;0.40;;
29026;SDS011;16120;48.608;9.092;2023-08-21T02:46:12;4.40;;;0.40;;
29026;SDS011;16120;48.608;9.092;2023-08-21T02:50:07;4.30;;;0.40;;
29026;SDS011;16120;48.608;9.092;2023-08-21T02:54:03;4.40;;;0.40;;
29026;SDS011;16120;48.608;9.092;2023-08-21T02:57:59;4.40;;;0.40;;
29026;SDS011;16120;48.608;9.092;2023-08-21T03:01:54;4.40;;;0.40;;
29026;SDS011;16120;48.608;9.092;2023-08-21T03:05:49;4.40;;;0.40;;
29026;SDS011;16120;48.608;9.092;2023-08-21T03:09:45;4.40;;;0.40;;
29026;SDS011;16120;48.608;9.092;2023-08-21T03:13:41;4.40;;;0.40;;
29026;SDS011;16120;48.608;9.092;2023-08-21T03:17:37;4.47;;;0.40;;
29026;SDS011;16120;48.608;9.092;2023-08-21T03:21:32;4.40;;;0.40;;
29026;SDS011;16120;48.608;9.092;2023-08-21T03:25:27;4.40;;;0.40;;
29026;SDS011;16120;48.608;9.092;2023-08-21T03:29:24;4.43;;;0.40;;
29026;SDS011;16120;48.608;9.092;2023-08-21T03:33:19;4.37;;;0.40;;
29026;SDS011;16120;48.608;9.092;2023-08-21T03:37:14;4.37;;;0.40;;
29026;SDS011;16120;48.608;9.092;2023-08-21T03:41:09;4.40;;;0.40;;
29026;SDS011;16120;48.608;9.092;2023-08-21T03:45:07;4.40;;;0.40;;
29026;SDS011;16120;48.608;9.092;2023-08-21T03:49:02;4.37;;;0.40;;
29026;SDS011;16120;48.608;9.092;2023-08-21T03:52:57;4.30;;;0.40;;
29026;SDS011;16120;48.608;9.092;2023-08-21T03:56:52;4.30;;;0.40;;
29026;SDS011;16120;48.608;9.092;2023-08-21T04:00:49;4.37;;;0.40;;
29026;SDS011;16120;48.608;9.092;2023-08-21T04:04:53;4.37;;;0.40;;
29026;SDS011;16120;48.608;9.092;2023-08-21T04:08:48;4.37;;;0.40;;
29026;SDS011;16120;48.608;9.092;2023-08-21T04:12:44;4.30;;;0.40;;
29026;SDS011;16120;48.608;9.092;2023-08-21T04:16:40;4.27;;;0.40;;
29026;SDS011;16120;48.608;9.092;2023-08-21T04:20:35;4.37;;;0.40;;
29026;SDS011;16120;48.608;9.092;2023-08-21T04:24:31;4.30;;;0.40;;
29026;SDS011;16120;48.608;9.092;2023-08-21T04:28:26;4.30;;;0.40;;
29026;SDS011;16120;48.608;9.092;2023-08-21T04:32:22;4.30;;;0.40;;
29026;SDS011;16120;48.608;9.092;2023-08-21T04:36:18;4.40;;;0.40;;
29026;SDS011;16120;48.608;9.092;2023-08-21T04:40:13;4.40;;;0.40;;
29026;SDS011;16120;48.608;9.092;2023-08-21T04:44:08;4.30;;;0.40;;
29026;SDS011;16120;48.608;9.092;2023-08-21T04:48:05;4.37;;;0.40;;
29026;SDS011;16120;48.608;9.092;2023-08-21T04:52:00;4.37;;;0.40;;
29026;SDS011;16120;48.608;9.092;2023-08-21T04:55:58;4.30;;;0.40;;
29026;SDS011;16120;48.608;9.092;2023-08-21T04:59:53;4.30;;;0.40;;
29026;SDS011;16120;48.608;9.092;2023-08-21T05:03:49;4.33;;;0.40;;
29026;SDS011;16120;48.608;9.092;2023-08-21T05:07:45;4.37;;;0.40;;
29026;SDS011;16120;48.608;9.092;2023-08-21T05:11:40;4.30;;;0.40;;
29026;SDS011;16120;48.608;9.092;2023-08-21T05:15:35;4.37;;;0.40;;
29026;SDS011;16120;48.608;9.092;2023-08-21T05:19:32;4.27;;;0.40;;
29026;SDS011;16120;48.608;9.092;2023-08-21T05:23:27;4.30;;;0.40;;
29026;SDS011;16120;48.608;9.092;2023-08-21T05:27:22;4.30;;;0.40;;
29026;SDS011;16120;48.608;9.092;2023-08-21T05:31:17;4.30;;;0.40;;
29026;SDS011;16120;48.608;9.092;2023-08-21T05:35:14;4.30;;;0.40;;
29026;SDS011;16120;48.608;9.092;2023-08-21T05:39:09;4.30;;;0.40;;
29026;SDS011;16120;48.608;9.092;2023-08-21T05:43:04;4.33;;;0.40;;
29026;SDS011;16120;48.608;9.092;2023-08-21T05:46:59;4.37;;;0.40;;
29026;SDS011;16120;48.608;9.092;2023-08-21T05:50:56;4.30;;;0.40;;
29026;SDS011;16120;48.608;9.092;2023-08-21T05:54:51;4.40;;;0.40;;
29026;SDS011;16120;48.608;9.092;2023-08-21T05:58:46;4.37;;;0.40;;
29026;SDS011;16120;48.608;9.092;2023-08-21T06:02:42;4.33;;;0.40;;
29026;SDS011;16120;48.608;9.092;2023-08-21T06:06:38;4.40;;;0.40;;
29026;SDS011;16120;48.608;9.092;2023-08-21T06:10:33;4.43;;;0.40;;
29026;SDS011;16120;48.608;9.092;2023-08-21T06:14:29;4.43;;;0.40;;
29026;SDS011;16120;48.608;9.092;2023-08-21T06:18:24;4.40;;;0.40;;
29026;SDS011;16120;48.608;9.092;2023-08-21T06:22:20;4.43;;;0.40;;
29026;SDS011;16120;48.608;9.092;2023-08-21T06:26:16;4.50;;;0.40;;
29026;SDS011;16120;48.608;9.092;2023-08-21T06:30:11;4.50;;;0.40;;
29026;SDS011;16120;48.608;9.092;2023-08-21T06:34:06;4.60;;;0.40;;
29026;SDS011;16120;48.608;9.092;2023-08-21T06:38:03;4.60;;;0.40;;
29026;SDS011;16120;48.608;9.092;2023-08-21T06:41:58;4.60;;;0.40;;
29026;SDS011;16120;48.608;9.092;2023-08-21T06:45:54;4.67;;;0.40;;
29026;SDS011;16120;48.608;9.092;2023-08-21T06:49:49;4.70;;;0.40;;
29026;SDS011;16120;48.608;9.092;2023-08-21T06:53:45;4.70;;;0.40;;
29026;SDS011;16120;48.608;9.092;2023-08-21T06:57:40;4.73;;;0.40;;
29026;SDS011;16120;48.608;9.092;2023-08-21T07:01:36;4.77;;;0.40;;
29026;SDS011;16120;48.608;9.092;2023-08-21T07:05:31;4.80;;;0.40;;
29026;SDS011;16120;48.608;9.092;2023-08-21T07:09:27;4.80;;;0.40;;
29026;SDS011;16120;48.608;9.092;2023-08-21T07:13:23;4.80;;;0.40;;
29026;SDS011;16120;48.608;9.092;2023-08-21T07:17:18;4.80;;;0.40;;
29026;SDS011;16120;48.608;9.092;2023-08-21T07:21:13;4.70;;;0.40;;
29026;SDS011;16120;48.608;9.092;2023-08-21T07:25:09;4.77;;;0.40;;
29026;SDS011;16120;48.608;9.092;2023-08-21T07:29:05;4.80;;;0.40;;
29026;SDS011;16120;48.608;9.092;2023-08-21T07:33:00;4.83;;;0.40;;
29026;SDS011;16120;48.608;9.092;2023-08-21T07:36:55;4.83;;;0.40;;
29026;SDS011;16120;48.608;9.092;2023-08-21T07:40:52;4.80;;;0.40;;
29026;SDS011;16120;48.608;9.092;2023-08-21T07:44:56;4.83;;;0.40;;
29026;SDS011;16120;48.608;9.092;2023-08-21T07:48:52;4.83;;;0.40;;
29026;SDS011;16120;48.608;9.092;2023-08-21T07:52:47;4.90;;;0.40;;
29026;SDS011;16120;48.608;9.092;2023-08-21T07:56:44;4.90;;;0.40;;
29026;SDS011;16120;48.608;9.092;2023-08-21T08:00:39;4.90;;;0.40;;
29026;SDS011;16120;48.608;9.092;2023-08-21T08:04:34;4.90;;;0.40;;
29026;SDS011;16120;48.608;9.092;2023-08-21T08:08:29;4.90;;;0.40;;
29026;SDS011;16120;48.608;9.092;2023-08-21T08:12:26;4.90;;;0.40;;
29026;SDS011;16120;48.608;9.092;2023-08-21T08:16:21;4.90;;;0.40;;
29026;SDS011;16120;48.608;9.092;2023-08-21T08:20:16;4.83;;;0.40;;
29026;SDS011;16120;48.608;9.092;2023-08-21T08:24:11;4.90;;;0.40;;
29026;SDS011;16120;48.608;9.092;2023-08-21T08:28:08;4.93;;;0.40;;
29026;SDS011;16120;48.608;9.092;2023-08-21T08:32:05;4.90;;;0.40;;
29026;SDS011;16120;48.608;9.092;2023-08-21T08:36:00;4.90;;;0.40;;
29026;SDS011;16120;48.608;9.092;2023-08-21T08:39:55;4.87;;;0.40;;
29026;SDS011;16120;48.608;9.092;2023-08-21T08:43:52;4.97;;;0.40;;
29026;SDS011;16120;48.608;9.092;2023-08-21T08:47:49;4.90;;;0.40;;
29026;SDS011;16120;48.608;9.092;2023-08-21T08:51:44;4.87;;;0.40;;
29026;SDS011;16120;48.608;9.092;2023-08-21T08:55:40;4.93;;;0.40;;
29026;SDS011;16120;48.608;9.092;2023-08-21T08:59:37;4.90;;;0.40;;
29026;SDS011;16120;48.608;9.092;2023-08-21T09:03:32;4.90;;;0.40;;
29026;SDS011;16120;48.608;9.092;2023-08-21T09:07:27;4.90;;;0.40;;
29026;SDS011;16120;48.608;9.092;2023-08-21T09:11:23;4.93;;;0.40;;
29026;SDS011;16120;48.608;9.092;2023-08-21T09:15:19;4.90;;;0.40;;
29026;SDS011;16120;48.608;9.092;2023-08-21T09:19:20;4.90;;;0.40;;
29026;SDS011;16120;48.608;9.092;2023-08-21T09:23:16;4.80;;;0.40;;
29026;SDS011;16120;48.608;9.092;2023-08-21T09:27:12;4.83;;;0.40;;
29026;SDS011;16120;48.608;9.092;2023-08-21T09:31:10;4.80;;;0.40;;
29026;SDS011;16120;48.608;9.092;2023-08-21T09:35:05;4.90;;;0.40;;
29026;SDS011;16120;48.608;9.092;2023-08-21T09:39:01;4.77;;;0.40;;
29026;SDS011;16120;48.608;9.092;2023-08-21T09:42:56;4.80;;;0.40;;
29026;SDS011;16120;48.608;9.092;2023-08-21T09:46:53;4.67;;;0.40;;
29026;SDS011;16120;48.608;9.092;2023-08-21T09:50:48;4.83;;;0.40;;
29026;SDS011;16120;48.608;9.092;2023-08-21T09:54:43;4.83;;;0.40;;
29026;SDS011;16120;48.608;9.092;2023-08-21T09:58:38;4.80;;;0.40;;
29026;SDS011;16120;48.608;9.092;2023-08-21T10:02:35;4.80;;;0.40;;
29026;SDS011;16120;48.608;9.092;2023-08-21T10:06:30;4.83;;;0.40;;
29026;SDS011;16120;48.608;9.092;2023-08-21T10:10:25;4.80;;;0.40;;
29026;SDS011;16120;48.608;9.092;2023-08-21T10:14:21;4.80;;;0.40;;
29026;SDS011;16120;48.608;9.092;2023-08-21T10:18:19;4.90;;;0.50;;
29026;SDS011;16120;48.608;9.092;2023-08-21T10:22:14;4.80;;;0.40;;
29026;SDS011;16120;48.608;9.092;2023-08-21T10:26:29;4.83;;;0.40;;
29026;SDS011;16120;48.608;9.092;2023-08-21T10:30:25;4.83;;;0.40;;
29026;SDS011;16120;48.608;9.092;2023-08-21T10:34:22;4.83;;;0.40;;
29026;SDS011;16120;48.608;9.092;2023-08-21T10:38:25;4.73;;;0.40;;
29026;SDS011;16120;48.608;9.092;2023-08-21T10:42:21;4.80;;;0.40;;
29026;SDS011;16120;48.608;9.092;2023-08-21T10:46:35;4.87;;;0.40;;
29026;SDS011;16120;48.608;9.092;2023-08-21T10:50:45;4.80;;;0.40;;
29026;SDS011;16120;48.608;9.092;2023-08-21T10:54:45;4.80;;;0.40;;
29026;SDS011;16120;48.608;9.092;2023-08-21T10:58:41;4.93;;;0.40;;
29026;SDS011;16120;48.608;9.092;2023-08-21T11:02:36;4.97;;;0.40;;
29026;SDS011;16120;48.608;9.092;2023-08-21T11:06:33;4.97;;;0.40;;
29026;SDS011;16120;48.608;9.092;2023-08-21T11:10:30;5.00;;;0.40;;
29026;SDS011;16120;48.608;9.092;2023-08-21T11:14:25;5.03;;;0.40;;
29026;SDS011;16120;48.608;9.092;2023-08-21T11:18:20;5.03;;;0.40;;
29026;SDS011;16120;48.608;9.092;2023-08-21T11:22:17;5.00;;;0.40;;
29026;SDS011;16120;48.608;9.092;2023-08-21T11:26:12;5.00;;;0.40;;
29026;SDS011;16120;48.608;9.092;2023-08-21T11:30:10;5.00;;;0.40;;
29026;SDS011;16120;48.608;9.092;2023-08-21T11:34:05;5.03;;;0.40;;
29026;SDS011;16120;48.608;9.092;2023-08-21T11:38:02;5.03;;;0.40;;
29026;SDS011;16120;48.608;9.092;2023-08-21T11:41:58;5.07;;;0.40;;
29026;SDS011;16120;48.608;9.092;2023-08-21T11:45:53;5.03;;;0.40;;
29026;SDS011;16120;48.608;9.092;2023-08-21T11:49:49;5.07;;;0.40;;
29026;SDS011;16120;48.608;9.092;2023-08-21T11:53:47;5.10;;;0.40;;
29026;SDS011;16120;48.608;9.092;2023-08-21T11:57:46;5.10;;;0.40;;
29026;SDS011;16120;48.608;9.092;2023-08-21T12:01:41;5.00;;;0.40;;
29026;SDS011;16120;48.608;9.092;2023-08-21T12:05:36;5.07;;;0.40;;
29026;SDS011;16120;48.608;9.092;2023-08-21T12:09:38;5.00;;;0.40;;
29026;SDS011;16120;48.608;9.092;2023-08-21T12:13:33;5.00;;;0.40;;
29026;SDS011;16120;48.608;9.092;2023-08-21T12:17:29;4.93;;;0.40;;
29026;SDS011;16120;48.608;9.092;2023-08-21T12:21:24;5.03;;;0.40;;
29026;SDS011;16120;48.608;9.092;2023-08-21T12:25:20;5.00;;;0.40;;
29026;SDS011;16120;48.608;9.092;2023-08-21T12:29:16;5.00;;;0.40;;
29026;SDS011;16120;48.608;9.092;2023-08-21T12:33:11;5.03;;;0.40;;
29026;SDS011;16120;48.608;9.092;2023-08-21T12:37:06;5.00;;;0.40;;
29026;SDS011;16120;48.608;9.092;2023-08-21T12:41:03;5.03;;;0.40;;
29026;SDS011;16120;48.608;9.092;2023-08-21T12:44:58;5.00;;;0.40;;
29026;SDS011;16120;48.608;9.092;2023-08-21T12:48:53;5.00;;;0.40;;
29026;SDS011;16120;48.608;9.092;2023-08-21T12:52:48;5.03;;;0.40;;
29026;SDS011;16120;48.608;9.092;2023-08-21T12:56:45;5.07;;;0.40;;
29026;SDS011;16120;48.608;9.092;2023-08-21T13:00:40;5.00;;;0.40;;
29026;SDS011;16120;48.608;9.092;2023-08-21T13:04:35;5.00;;;0.40;;
29026;SDS011;16120;48.608;9.092;2023-08-21T13:08:30;5.00;;;0.40;;
29026;SDS011;16120;48.608;9.092;2023-08-21T13:12:27;5.00;;;0.40;;
29026;SDS011;16120;48.608;9.092;2023-08-21T13:16:22;5.07;;;0.40;;
29026;SDS011;16120;48.608;9.092;2023-08-21T13:20:17;5.10;;;0.40;;
29026;SDS011;16120;48.608;9.092;2023-08-21T13:24:13;5.07;;;0.40;;
29026;SDS011;16120;48.608;9.092;2023-08-21T13:28:09;5.10;;;0.40;;
29026;SDS011;16120;48.608;9.092;2023-08-21T13:32:04;5.10;;;0.40;;
29026;SDS011;16120;48.608;9.092;2023-08-21T13:36:00;5.10;;;0.40;;
29026;SDS011;16120;48.608;9.092;2023-08-21T13:39:55;5.10;;;0.50;;
29026;SDS011;16120;48.608;9.092;2023-08-21T13:43:51;5.00;;;0.40;;
29026;SDS011;16120;48.608;9.092;2023-08-21T13:47:47;5.07;;;0.40;;
29026;SDS011;16120;48.608;9.092;2023-08-21T13:51:42;5.03;;;0.40;;
29026;SDS011;16120;48.608;9.092;2023-08-21T13:55:38;5.00;;;0.40;;
29026;SDS011;16120;48.608;9.092;2023-08-21T13:59:34;5.10;;;0.40;;
29026;SDS011;16120;48.608;9.092;2023-08-21T14:03:29;5.07;;;0.40;;
29026;SDS011;16120;48.608;9.092;2023-08-21T14:07:25;5.10;;;0.40;;
29026;SDS011;16120;48.608;9.092;2023-08-21T14:11:20;5.03;;;0.40;;
29026;SDS011;16120;48.608;9.092;2023-08-21T14:15:16;5.03;;;0.40;;
29026;SDS011;16120;48.608;9.092;2023-08-21T14:19:12;5.07;;;0.40;;
29026;SDS011;16120;48.608;9.092;2023-08-21T14:23:07;5.00;;;0.40;;
29026;SDS011;16120;48.608;9.092;2023-08-21T14:27:02;5.00;;;0.40;;
29026;SDS011;16120;48.608;9.092;2023-08-21T14:30:59;5.00;;;0.40;;
29026;SDS011;16120;48.608;9.092;2023-08-21T14:34:54;5.03;;;0.40;;
29026;SDS011;16120;48.608;9.092;2023-08-21T14:38:49;5.00;;;0.40;;
29026;SDS011;16120;48.608;9.092;2023-08-21T14:42:44;5.10;;;0.40;;
29026;SDS011;16120;48.608;9.092;2023-08-21T14:46:41;5.03;;;0.40;;
29026;SDS011;16120;48.608;9.092;2023-08-21T14:50:36;5.03;;;0.40;;
29026;SDS011;16120;48.608;9.092;2023-08-21T14:54:32;5.00;;;0.40;;
29026;SDS011;16120;48.608;9.092;2023-08-21T14:58:28;5.00;;;0.40;;
29026;SDS011;16120;48.608;9.092;2023-08-21T15:02:24;5.03;;;0.40;;
29026;SDS011;16120;48.608;9.092;2023-08-21T15:06:19;5.00;;;0.40;;
29026;SDS011;16120;48.608;9.092;2023-08-21T15:10:16;4.93;;;0.40;;
29026;SDS011;16120;48.608;9.092;2023-08-21T15:14:11;5.00;;;0.40;;
29026;SDS011;16120;48.608;9.092;2023-08-21T15:18:08;5.00;;;0.40;;
29026;SDS011;16120;48.608;9.092;2023-08-21T15:22:03;5.00;;;0.40;;
29026;SDS011;16120;48.608;9.092;2023-08-21T15:25:58;5.00;;;0.40;;
29026;SDS011;16120;48.608;9.092;2023-08-21T15:29:53;5.00;;;0.40;;
29026;SDS011;16120;48.608;9.092;2023-08-21T15:33:50;5.00;;;0.40;;
29026;SDS011;16120;48.608;9.092;2023-08-21T15:37:45;5.00;;;0.40;;
29026;SDS011;16120;48.608;9.092;2023-08-21T15:41:40;5.00;;;0.40;;
29026;SDS011;16120;48.608;9.092;2023-08-21T15:45:35;5.00;;;0.40;;
29026;SDS011;16120;48.608;9.092;2023-08-21T15:49:32;5.00;;;0.40;;
29026;SDS011;16120;48.608;9.092;2023-08-21T15:53:27;5.00;;;0.40;;
29026;SDS011;16120;48.608;9.092;2023-08-21T15:57:22;4.93;;;0.40;;
29026;SDS011;16120;48.608;9.092;2023-08-21T16:01:18;5.00;;;0.40;;
29026;SDS011;16120;48.608;9.092;2023-08-21T16:05:14;5.00;;;0.40;;
29026;SDS011;16120;48.608;9.092;2023-08-21T16:09:10;5.00;;;0.40;;
29026;SDS011;16120;48.608;9.092;2023-08-21T16:13:05;5.00;;;0.40;;
29026;SDS011;16120;48.608;9.092;2023-08-21T16:17:00;5.00;;;0.40;;
29026;SDS011;16120;48.608;9.092;2023-08-21T16:20:57;5.00;;;0.40;;
29026;SDS011;16120;48.608;9.092;2023-08-21T16:24:52;5.00;;;0.40;;
29026;SDS011;16120;48.608;9.092;2023-08-21T16:28:47;5.00;;;0.40;;
29026;SDS011;16120;48.608;9.092;2023-08-21T16:32:42;5.00;;;0.40;;
29026;SDS011;16120;48.608;9.092;2023-08-21T16:36:39;5.00;;;0.40;;
29026;SDS011;16120;48.608;9.092;2023-08-21T16:40:34;5.03;;;0.40;;
29026;SDS011;16120;48.608;9.092;2023-08-21T16:44:29;5.03;;;0.40;;
29026;SDS011;16120;48.608;9.092;2023-08-21T16:48:25;5.00;;;0.40;;
29026;SDS011;16120;48.608;9.092;2023-08-21T16:52:22;5.00;;;0.40;;
29026;SDS011;16120;48.608;9.092;2023-08-21T16:56:17;5.00;;;0.40;;
29026;SDS011;16120;48.608;9.092;2023-08-21T17:00:13;5.00;;;0.40;;
29026;SDS011;16120;48.608;9.092;2023-08-21T17:04:08;5.00;;;0.40;;
29026;SDS011;16120;48.608;9.092;2023-08-21T17:08:05;5.00;;;0.40;;
29026;SDS011;16120;48.608;9.092;2023-08-21T17:12:00;5.00;;;0.40;;
29026;SDS011;16120;48.608;9.092;2023-08-21T17:15:55;5.00;;;0.40;;
29026;SDS011;16120;48.608;9.092;2023-08-21T17:19:50;5.00;;;0.40;;
29026;SDS011;16120;48.608;9.092;2023-08-21T17:23:47;5.03;;;0.40;;
29026;SDS011;16120;48.608;9.092;2023-08-21T17:27:42;5.00;;;0.40;;
29026;SDS011;16120;48.608;9.092;2023-08-21T17:31:38;4.97;;;0.40;;
29026;SDS011;16120;48.608;9.092;2023-08-21T17:35:33;5.00;;;0.40;;
29026;SDS011;16120;48.608;9.092;2023-08-21T17:39:29;5.00;;;0.40;;
29026;SDS011;16120;48.608;9.092;2023-08-21T17:43:25;5.00;;;0.40;;
29026;SDS011;16120;48.608;9.092;2023-08-21T17:47:20;4.97;;;0.40;;
29026;SDS011;16120;48.608;9.092;2023-08-21T17:51:15;5.00;;;0.40;;
29026;SDS011;16120;48.608;9.092;2023-08-21T17:55:13;5.00;;;0.40;;
29026;SDS011;16120;48.608;9.092;2023-08-21T17:59:08;5.00;;;0.40;;
29026;SDS011;16120;48.608;9.092;2023-08-21T18:03:03;5.00;;;0.40;;
29026;SDS011;16120;48.608;9.092;2023-08-21T18:06:59;5.00;;;0.40;;
29026;SDS011;16120;48.608;9.092;2023-08-21T18:10:56;5.00;;;0.40;;
29026;SDS011;16120;48.608;9.092;2023-08-21T18:14:51;5.00;;;0.40;;
29026;SDS011;16120;48.608;9.092;2023-08-21T18:18:46;4.93;;;0.40;;
29026;SDS011;16120;48.608;9.092;2023-08-21T18:22:41;5.03;;;0.40;;
29026;SDS011;16120;48.608;9.092;2023-08-21T18:26:38;5.00;;;0.40;;
29026;SDS011;16120;48.608;9.092;2023-08-21T18:30:34;4.97;;;0.40;;
29026;SDS011;16120;48.608;9.092;2023-08-21T18:34:29;4.97;;;0.40;;
29026;SDS011;16120;48.608;9.092;2023-08-21T18:38:24;5.00;;;0.40;;
29026;SDS011;16120;48.608;9.092;2023-08-21T18:42:21;5.00;;;0.40;;
29026;SDS011;16120;48.608;9.092;2023-08-21T18:46:16;4.97;;;0.40;;
29026;SDS011;16120;48.608;9.092;2023-08-21T18:50:11;5.00;;;0.40;;
29026;SDS011;16120;48.608;9.092;2023-08-21T18:54:06;4.90;;;0.40;;
29026;SDS011;16120;48.608;9.092;2023-08-21T18:58:03;5.00;;;0.40;;
29026;SDS011;16120;48.608;9.092;2023-08-21T19:01:59;4.93;;;0.40;;
29026;SDS011;16120;48.608;9.092;2023-08-21T19:05:54;4.97;;;0.40;;
29026;SDS011;16120;48.608;9.092;2023-08-21T19:09:49;4.97;;;0.40;;
29026;SDS011;16120;48.608;9.092;2023-08-21T19:13:46;4.90;;;0.40;;
29026;SDS011;16120;48.608;9.092;2023-08-21T19:17:41;4.90;;;0.40;;
29026;SDS011;16120;48.608;9.092;2023-08-21T19:21:36;4.90;;;0.40;;
29026;SDS011;16120;48.608;9.092;2023-08-21T19:25:31;5.00;;;0.40;;
29026;SDS011;16120;48.608;9.092;2023-08-21T19:29:28;4.97;;;0.40;;
29026;SDS011;16120;48.608;9.092;2023-08-21T19:33:23;5.00;;;0.40;;
29026;SDS011;16120;48.608;9.092;2023-08-21T19:37:18;4.97;;;0.40;;
29026;SDS011;16120;48.608;9.092;2023-08-21T19:41:14;4.97;;;0.40;;
29026;SDS011;16120;48.608;9.092;2023-08-21T19:45:11;4.97;;;0.40;;
29026;SDS011;16120;48.608;9.092;2023-08-21T19:49:06;4.97;;;0.40;;
29026;SDS011;16120;48.608;9.092;2023-08-21T19:53:03;5.00;;;0.40;;
29026;SDS011;16120;48.608;9.092;2023-08-21T19:56:58;5.00;;;0.40;;
29026;SDS011;16120;48.608;9.092;2023-08-21T20:00:54;5.00;;;0.40;;
29026;SDS011;16120;48.608;9.092;2023-08-21T20:04:50;5.00;;;0.40;;
29026;SDS011;16120;48.608;9.092;2023-08-21T20:08:45;5.00;;;0.40;;
29026;SDS011;16120;48.608;9.092;2023-08-21T20:12:42;4.93;;;0.40;;
29026;SDS011;16120;48.608;9.092;2023-08-21T20:16:38;4.90;;;0.40;;
29026;SDS011;16120;48.608;9.092;2023-08-21T20:20:34;4.90;;;0.40;;
29026;SDS011;16120;48.608;9.092;2023-08-21T20:24:29;4.87;;;0.40;;
29026;SDS011;16120;48.608;9.092;2023-08-21T20:28:24;4.90;;;0.40;;
29026;SDS011;16120;48.608;9.092;2023-08-21T20:32:21;4.90;;;0.40;;
29026;SDS011;16120;48.608;9.092;2023-08-21T20:36:16;4.80;;;0.40;;
29026;SDS011;16120;48.608;9.092;2023-08-21T20:40:11;4.90;;;0.40;;
29026;SDS011;16120;48.608;9.092;2023-08-21T20:44:06;4.80;;;0.40;;
29026;SDS011;16120;48.608;9.092;2023-08-21T20:48:03;4.80;;;0.40;;
29026;SDS011;16120;48.608;9.092;2023-08-21T20:51:59;4.77;;;0.40;;
29026;SDS011;16120;48.608;9.092;2023-08-21T20:55:54;4.77;;;0.40;;
29026;SDS011;16120;48.608;9.092;2023-08-21T20:59:50;4.77;;;0.40;;
29026;SDS011;16120;48.608;9.092;2023-08-21T21:03:46;4.70;;;0.40;;
29026;SDS011;16120;48.608;9.092;2023-08-21T21:07:41;4.80;;;0.40;;
29026;SDS011;16120;48.608;9.092;2023-08-21T21:11:36;4.70;;;0.40;;
29026;SDS011;16120;48.608;9.092;2023-08-21T21:15:32;4.70;;;0.40;;
29026;SDS011;16120;48.608;9.092;2023-08-21T21:19:28;4.70;;;0.40;;
29026;SDS011;16120;48.608;9.092;2023-08-21T21:23:24;4.70;;;0.40;;
29026;SDS011;16120;48.608;9.092;2023-08-21T21:27:19;4.70;;;0.40;;
29026;SDS011;16120;48.608;9.092;2023-08-21T21:31:14;4.70;;;0.40;;
29026;SDS011;16120;48.608;9.092;2023-08-21T21:35:10;4.70;;;0.40;;
29026;SDS011;16120;48.608;9.092;2023-08-21T21:39:06;4.70;;;0.40;;
29026;SDS011;16120;48.608;9.092;2023-08-21T21:43:01;4.70;;;0.40;;
29026;SDS011;16120;48.608;9.092;2023-08-21T21:46:56;4.70;;;0.40;;
29026;SDS011;16120;48.608;9.092;2023-08-21T21:50:53;4.70;;;0.40;;
29026;SDS011;16120;48.608;9.092;2023-08-21T21:54:48;4.63;;;0.40;;
29026;SDS011;16120;48.608;9.092;2023-08-21T21:58:44;4.67;;;0.40;;
29026;SDS011;16120;48.608;9.092;2023-08-21T22:02:40;4.67;;;0.40;;
29026;SDS011;16120;48.608;9.092;2023-08-21T22:06:36;4.67;;;0.40;;
29026;SDS011;16120;48.608;9.092;2023-08-21T22:10:32;4.60;;;0.40;;
29026;SDS011;16120;48.608;9.092;2023-08-21T22:14:27;4.67;;;0.40;;
29026;SDS011;16120;48.608;9.092;2023-08-21T22:18:23;4.60;;;0.40;;
29026;SDS011;16120;48.608;9.092;2023-08-21T22:22:19;4.63;;;0.40;;
29026;SDS011;16120;48.608;9.092;2023-08-21T22:26:15;4.70;;;0.40;;
29026;SDS011;16120;48.608;9.092;2023-08-21T22:30:10;4.63;;;0.40;;
29026;SDS011;16120;48.608;9.092;2023-08-21T22:34:06;4.60;;;0.40;;
29026;SDS011;16120;48.608;9.092;2023-08-21T22:38:02;4.67;;;0.40;;
29026;SDS011;16120;48.608;9.092;2023-08-21T22:41:57;4.60;;;0.40;;
29026;SDS011;16120;48.608;9.092;2023-08-21T22:45:53;4.60;;;0.40;;
29026;SDS011;16120;48.608;9.092;2023-08-21T22:49:48;4.60;;;0.40;;
29026;SDS011;16120;48.608;9.092;2023-08-21T22:53:45;4.60;;;0.40;;
29026;SDS011;16120;48.608;9.092;2023-08-21T22:57:40;4.63;;;0.40;;
29026;SDS011;16120;48.608;9.092;2023-08-21T23:01:36;4.63;;;0.40;;
29026;SDS011;16120;48.608;9.092;2023-08-21T23:05:31;4.63;;;0.40;;
29026;SDS011;16120;48.608;9.092;2023-08-21T23:09:27;4.63;;;0.40;;
29026;SDS011;16120;48.608;9.092;2023-08-21T23:13:23;4.57;;;0.40;;
29026;SDS011;16120;48.608;9.092;2023-08-21T23:17:18;4.60;;;0.40;;
29026;SDS011;16120;48.608;9.092;2023-08-21T23:21:13;4.70;;;0.40;;
29026;SDS011;16120;48.608;9.092;2023-08-21T23:25:10;4.60;;;0.40;;
29026;SDS011;16120;48.608;9.092;2023-08-21T23:29:05;4.60;;;0.40;;
29026;SDS011;16120;48.608;9.092;2023-08-21T23:37:17;4.63;;;0.40;;
29026;SDS011;16120;48.608;9.092;2023-08-21T23:41:13;4.60;;;0.40;;
29026;SDS011;16120;48.608;9.092;2023-08-21T23:45:09;4.70;;;0.40;;